sensor_id;sensor_type;location;lat;lon;timestamp;P1;durP1;ratioP1;P2;durP2;ratioP2
31402;SDS011;18039;52.188;21.024;2023-03-04T00:01:49;33.38;;;15.20;;
31402;SDS011;18039;52.188;21.024;2023-03-04T00:04:17;31.15;;;14.65;;
31402;SDS011;18039;52.188;21.024;2023-03-04T00:06:44;26.50;;;11.50;;
31402;SDS011;18039;52.188;21.024;2023-03-04T00:09:11;29.38;;;14.95;;
31402;SDS011;18039;52.188;21.024;2023-03-04T00:11:38;18.05;;;9.43;;
31402;SDS011;18039;52.188;21.024;2023-03-04T00:14:05;32.13;;;14.77;;
31402;SDS011;18039;52.188;21.024;2023-03-04T00:16:33;29.42;;;11.65;;
31402;SDS011;18039;52.188;21.024;2023-03-04T00:19:00;33.40;;;15.70;;
31402;SDS011;18039;52.188;21.024;2023-03-04T00:21:27;32.67;;;15.70;;
31402;SDS011;18039;52.188;21.024;2023-03-04T00:23:54;36.22;;;14.52;;
31402;SDS011;18039;52.188;21.024;2023-03-04T00:26:22;37.25;;;16.92;;
31402;SDS011;18039;52.188;21.024;2023-03-04T00:28:49;33.95;;;13.75;;
31402;SDS011;18039;52.188;21.024;2023-03-04T00:31:16;41.15;;;17.70;;
31402;SDS011;18039;52.188;21.024;2023-03-04T00:33:43;38.55;;;18.00;;
31402;SDS011;18039;52.188;21.024;2023-03-04T00:36:11;39.35;;;18.00;;
31402;SDS011;18039;52.188;21.024;2023-03-04T00:38:38;37.70;;;17.83;;
31402;SDS011;18039;52.188;21.024;2023-03-04T00:41:05;35.22;;;16.35;;
31402;SDS011;18039;52.188;21.024;2023-03-04T00:43:33;39.13;;;16.80;;
31402;SDS011;18039;52.188;21.024;2023-03-04T00:46:00;31.98;;;14.52;;
31402;SDS011;18039;52.188;21.024;2023-03-04T00:48:28;43.35;;;17.05;;
31402;SDS011;18039;52.188;21.024;2023-03-04T00:50:56;36.92;;;17.88;;
31402;SDS011;18039;52.188;21.024;2023-03-04T00:53:23;41.22;;;16.85;;
31402;SDS011;18039;52.188;21.024;2023-03-04T00:55:50;42.10;;;16.95;;
31402;SDS011;18039;52.188;21.024;2023-03-04T00:58:17;41.80;;;16.95;;
31402;SDS011;18039;52.188;21.024;2023-03-04T01:00:45;39.30;;;19.13;;
31402;SDS011;18039;52.188;21.024;2023-03-04T01:03:12;35.33;;;14.52;;
31402;SDS011;18039;52.188;21.024;2023-03-04T01:05:39;36.75;;;15.32;;
31402;SDS011;18039;52.188;21.024;2023-03-04T01:08:06;44.38;;;17.58;;
31402;SDS011;18039;52.188;21.024;2023-03-04T01:10:33;41.38;;;17.80;;
31402;SDS011;18039;52.188;21.024;2023-03-04T01:13:01;39.92;;;16.60;;
31402;SDS011;18039;52.188;21.024;2023-03-04T01:15:28;39.80;;;16.10;;
31402;SDS011;18039;52.188;21.024;2023-03-04T01:17:55;48.53;;;16.60;;
31402;SDS011;18039;52.188;21.024;2023-03-04T01:20:23;36.10;;;13.95;;
31402;SDS011;18039;52.188;21.024;2023-03-04T01:22:50;49.92;;;17.45;;
31402;SDS011;18039;52.188;21.024;2023-03-04T01:25:17;43.80;;;15.77;;
31402;SDS011;18039;52.188;21.024;2023-03-04T01:27:44;39.35;;;16.05;;
31402;SDS011;18039;52.188;21.024;2023-03-04T01:30:12;44.05;;;17.73;;
31402;SDS011;18039;52.188;21.024;2023-03-04T01:32:39;41.38;;;17.77;;
31402;SDS011;18039;52.188;21.024;2023-03-04T01:35:08;31.77;;;14.07;;
31402;SDS011;18039;52.188;21.024;2023-03-04T01:37:36;38.25;;;16.50;;
31402;SDS011;18039;52.188;21.024;2023-03-04T01:40:04;43.10;;;17.65;;
31402;SDS011;18039;52.188;21.024;2023-03-04T01:42:32;37.80;;;16.20;;
31402;SDS011;18039;52.188;21.024;2023-03-04T01:45:02;51.13;;;17.33;;
31402;SDS011;18039;52.188;21.024;2023-03-04T01:47:32;42.35;;;17.65;;
31402;SDS011;18039;52.188;21.024;2023-03-04T01:50:03;40.83;;;16.75;;
31402;SDS011;18039;52.188;21.024;2023-03-04T01:52:33;45.28;;;17.23;;
31402;SDS011;18039;52.188;21.024;2023-03-04T01:55:00;35.53;;;16.30;;
31402;SDS011;18039;52.188;21.024;2023-03-04T01:57:32;40.90;;;14.95;;
31402;SDS011;18039;52.188;21.024;2023-03-04T02:00:22;32.97;;;14.68;;
31402;SDS011;18039;52.188;21.024;2023-03-04T02:02:56;36.97;;;14.80;;
31402;SDS011;18039;52.188;21.024;2023-03-04T02:05:26;38.35;;;14.80;;
31402;SDS011;18039;52.188;21.024;2023-03-04T02:07:54;41.95;;;15.50;;
31402;SDS011;18039;52.188;21.024;2023-03-04T02:10:23;38.05;;;14.35;;
31402;SDS011;18039;52.188;21.024;2023-03-04T02:12:50;35.90;;;12.93;;
31402;SDS011;18039;52.188;21.024;2023-03-04T02:15:19;30.02;;;12.10;;
31402;SDS011;18039;52.188;21.024;2023-03-04T02:17:46;31.30;;;14.25;;
31402;SDS011;18039;52.188;21.024;2023-03-04T02:23:00;33.88;;;13.40;;
31402;SDS011;18039;52.188;21.024;2023-03-04T02:25:32;33.20;;;13.98;;
31402;SDS011;18039;52.188;21.024;2023-03-04T02:28:05;27.23;;;11.50;;
31402;SDS011;18039;52.188;21.024;2023-03-04T02:30:33;39.22;;;16.17;;
31402;SDS011;18039;52.188;21.024;2023-03-04T02:33:00;32.35;;;13.75;;
31402;SDS011;18039;52.188;21.024;2023-03-04T02:35:29;29.08;;;12.43;;
31402;SDS011;18039;52.188;21.024;2023-03-04T02:37:56;36.42;;;14.38;;
31402;SDS011;18039;52.188;21.024;2023-03-04T02:40:28;37.85;;;17.38;;
31402;SDS011;18039;52.188;21.024;2023-03-04T02:42:59;29.00;;;12.10;;
31402;SDS011;18039;52.188;21.024;2023-03-04T02:47:56;33.95;;;14.95;;
31402;SDS011;18039;52.188;21.024;2023-03-04T02:50:24;39.58;;;16.95;;
31402;SDS011;18039;52.188;21.024;2023-03-04T02:52:54;33.97;;;14.25;;
31402;SDS011;18039;52.188;21.024;2023-03-04T02:55:21;42.33;;;17.00;;
31402;SDS011;18039;52.188;21.024;2023-03-04T02:57:49;40.47;;;18.25;;
31402;SDS011;18039;52.188;21.024;2023-03-04T03:00:16;41.53;;;16.75;;
31402;SDS011;18039;52.188;21.024;2023-03-04T03:02:44;41.17;;;18.48;;
31402;SDS011;18039;52.188;21.024;2023-03-04T03:05:12;47.30;;;18.10;;
31402;SDS011;18039;52.188;21.024;2023-03-04T03:07:39;39.83;;;16.27;;
31402;SDS011;18039;52.188;21.024;2023-03-04T03:10:07;41.38;;;15.95;;
31402;SDS011;18039;52.188;21.024;2023-03-04T03:12:35;33.53;;;11.68;;
31402;SDS011;18039;52.188;21.024;2023-03-04T03:15:03;48.40;;;18.15;;
31402;SDS011;18039;52.188;21.024;2023-03-04T03:17:31;43.30;;;17.23;;
31402;SDS011;18039;52.188;21.024;2023-03-04T03:19:59;36.15;;;15.52;;
31402;SDS011;18039;52.188;21.024;2023-03-04T03:22:25;41.05;;;16.83;;
31402;SDS011;18039;52.188;21.024;2023-03-04T03:24:53;38.05;;;17.08;;
31402;SDS011;18039;52.188;21.024;2023-03-04T03:27:20;40.03;;;18.75;;
31402;SDS011;18039;52.188;21.024;2023-03-04T03:29:48;40.55;;;16.50;;
31402;SDS011;18039;52.188;21.024;2023-03-04T03:32:15;38.05;;;17.27;;
31402;SDS011;18039;52.188;21.024;2023-03-04T03:34:43;38.42;;;16.10;;
31402;SDS011;18039;52.188;21.024;2023-03-04T03:37:10;36.55;;;16.02;;
31402;SDS011;18039;52.188;21.024;2023-03-04T03:39:38;40.97;;;16.13;;
31402;SDS011;18039;52.188;21.024;2023-03-04T03:42:05;27.13;;;13.13;;
31402;SDS011;18039;52.188;21.024;2023-03-04T03:44:33;37.85;;;18.17;;
31402;SDS011;18039;52.188;21.024;2023-03-04T03:47:01;37.13;;;17.38;;
31402;SDS011;18039;52.188;21.024;2023-03-04T03:49:28;39.85;;;17.00;;
31402;SDS011;18039;52.188;21.024;2023-03-04T03:51:55;34.88;;;15.48;;
31402;SDS011;18039;52.188;21.024;2023-03-04T03:54:23;33.22;;;14.98;;
31402;SDS011;18039;52.188;21.024;2023-03-04T03:56:50;39.65;;;16.88;;
31402;SDS011;18039;52.188;21.024;2023-03-04T03:59:17;33.72;;;14.43;;
31402;SDS011;18039;52.188;21.024;2023-03-04T04:01:44;42.47;;;18.08;;
31402;SDS011;18039;52.188;21.024;2023-03-04T04:04:11;40.85;;;16.67;;
31402;SDS011;18039;52.188;21.024;2023-03-04T04:06:40;33.95;;;16.20;;
31402;SDS011;18039;52.188;21.024;2023-03-04T04:09:07;42.25;;;17.60;;
31402;SDS011;18039;52.188;21.024;2023-03-04T04:11:34;39.53;;;17.65;;
31402;SDS011;18039;52.188;21.024;2023-03-04T04:14:01;40.38;;;16.25;;
31402;SDS011;18039;52.188;21.024;2023-03-04T04:16:29;23.50;;;10.25;;
31402;SDS011;18039;52.188;21.024;2023-03-04T04:18:57;44.53;;;18.05;;
31402;SDS011;18039;52.188;21.024;2023-03-04T04:21:23;39.05;;;17.15;;
31402;SDS011;18039;52.188;21.024;2023-03-04T04:23:51;38.38;;;16.92;;
31402;SDS011;18039;52.188;21.024;2023-03-04T04:26:18;34.72;;;15.63;;
31402;SDS011;18039;52.188;21.024;2023-03-04T04:28:46;35.22;;;15.82;;
31402;SDS011;18039;52.188;21.024;2023-03-04T04:31:13;36.47;;;17.58;;
31402;SDS011;18039;52.188;21.024;2023-03-04T04:33:41;34.90;;;14.57;;
31402;SDS011;18039;52.188;21.024;2023-03-04T04:36:11;28.35;;;14.43;;
31402;SDS011;18039;52.188;21.024;2023-03-04T04:38:40;33.92;;;15.13;;
31402;SDS011;18039;52.188;21.024;2023-03-04T04:41:17;30.63;;;14.07;;
31402;SDS011;18039;52.188;21.024;2023-03-04T04:43:47;34.08;;;16.25;;
31402;SDS011;18039;52.188;21.024;2023-03-04T04:46:15;33.75;;;16.23;;
31402;SDS011;18039;52.188;21.024;2023-03-04T04:48:43;31.77;;;14.38;;
31402;SDS011;18039;52.188;21.024;2023-03-04T04:51:10;31.80;;;16.98;;
31402;SDS011;18039;52.188;21.024;2023-03-04T04:53:38;39.75;;;18.92;;
31402;SDS011;18039;52.188;21.024;2023-03-04T04:56:09;32.83;;;14.68;;
31402;SDS011;18039;52.188;21.024;2023-03-04T04:58:38;24.65;;;13.57;;
31402;SDS011;18039;52.188;21.024;2023-03-04T05:01:05;35.78;;;15.98;;
31402;SDS011;18039;52.188;21.024;2023-03-04T05:03:33;34.83;;;15.80;;
31402;SDS011;18039;52.188;21.024;2023-03-04T05:06:02;28.40;;;12.48;;
31402;SDS011;18039;52.188;21.024;2023-03-04T05:08:31;26.10;;;14.77;;
31402;SDS011;18039;52.188;21.024;2023-03-04T05:10:58;30.95;;;14.75;;
31402;SDS011;18039;52.188;21.024;2023-03-04T05:13:26;33.50;;;15.77;;
31402;SDS011;18039;52.188;21.024;2023-03-04T05:15:54;30.42;;;14.15;;
31402;SDS011;18039;52.188;21.024;2023-03-04T05:18:23;33.70;;;15.45;;
31402;SDS011;18039;52.188;21.024;2023-03-04T05:20:51;27.88;;;12.80;;
31402;SDS011;18039;52.188;21.024;2023-03-04T05:23:20;39.70;;;15.82;;
31402;SDS011;18039;52.188;21.024;2023-03-04T05:25:48;29.08;;;13.68;;
31402;SDS011;18039;52.188;21.024;2023-03-04T05:28:16;30.30;;;15.32;;
31402;SDS011;18039;52.188;21.024;2023-03-04T05:30:44;31.38;;;15.82;;
31402;SDS011;18039;52.188;21.024;2023-03-04T05:33:13;35.08;;;15.75;;
31402;SDS011;18039;52.188;21.024;2023-03-04T05:35:43;34.67;;;15.10;;
31402;SDS011;18039;52.188;21.024;2023-03-04T05:38:12;35.20;;;14.80;;
31402;SDS011;18039;52.188;21.024;2023-03-04T05:40:41;32.65;;;15.77;;
31402;SDS011;18039;52.188;21.024;2023-03-04T05:43:09;28.95;;;15.07;;
31402;SDS011;18039;52.188;21.024;2023-03-04T05:45:37;31.25;;;15.25;;
31402;SDS011;18039;52.188;21.024;2023-03-04T05:48:05;30.65;;;14.70;;
31402;SDS011;18039;52.188;21.024;2023-03-04T05:50:34;31.65;;;15.25;;
31402;SDS011;18039;52.188;21.024;2023-03-04T05:53:01;32.00;;;15.88;;
31402;SDS011;18039;52.188;21.024;2023-03-04T05:55:28;31.67;;;13.20;;
31402;SDS011;18039;52.188;21.024;2023-03-04T05:57:56;30.63;;;15.05;;
31402;SDS011;18039;52.188;21.024;2023-03-04T06:00:23;28.67;;;13.45;;
31402;SDS011;18039;52.188;21.024;2023-03-04T06:02:51;32.92;;;14.77;;
31402;SDS011;18039;52.188;21.024;2023-03-04T06:05:20;29.02;;;14.13;;
31402;SDS011;18039;52.188;21.024;2023-03-04T06:07:48;28.92;;;14.25;;
31402;SDS011;18039;52.188;21.024;2023-03-04T06:10:15;30.95;;;15.35;;
31402;SDS011;18039;52.188;21.024;2023-03-04T06:12:43;31.08;;;14.15;;
31402;SDS011;18039;52.188;21.024;2023-03-04T06:15:11;35.28;;;16.23;;
31402;SDS011;18039;52.188;21.024;2023-03-04T06:17:39;29.83;;;13.95;;
31402;SDS011;18039;52.188;21.024;2023-03-04T06:20:08;31.02;;;13.05;;
31402;SDS011;18039;52.188;21.024;2023-03-04T06:22:37;35.60;;;16.23;;
31402;SDS011;18039;52.188;21.024;2023-03-04T06:25:04;34.22;;;15.73;;
31402;SDS011;18039;52.188;21.024;2023-03-04T06:27:32;28.42;;;15.02;;
31402;SDS011;18039;52.188;21.024;2023-03-04T06:29:59;31.20;;;14.55;;
31402;SDS011;18039;52.188;21.024;2023-03-04T06:32:27;31.98;;;15.90;;
31402;SDS011;18039;52.188;21.024;2023-03-04T06:34:55;33.40;;;16.33;;
31402;SDS011;18039;52.188;21.024;2023-03-04T06:37:22;29.20;;;12.68;;
31402;SDS011;18039;52.188;21.024;2023-03-04T06:39:49;32.15;;;14.32;;
31402;SDS011;18039;52.188;21.024;2023-03-04T06:42:17;31.38;;;15.07;;
31402;SDS011;18039;52.188;21.024;2023-03-04T06:44:45;29.95;;;14.75;;
31402;SDS011;18039;52.188;21.024;2023-03-04T06:47:14;32.80;;;14.52;;
31402;SDS011;18039;52.188;21.024;2023-03-04T06:49:42;31.83;;;14.77;;
31402;SDS011;18039;52.188;21.024;2023-03-04T06:52:09;33.55;;;14.63;;
31402;SDS011;18039;52.188;21.024;2023-03-04T06:54:38;34.17;;;14.60;;
31402;SDS011;18039;52.188;21.024;2023-03-04T06:57:06;33.80;;;15.07;;
31402;SDS011;18039;52.188;21.024;2023-03-04T06:59:33;27.35;;;13.10;;
31402;SDS011;18039;52.188;21.024;2023-03-04T07:02:01;35.40;;;15.60;;
31402;SDS011;18039;52.188;21.024;2023-03-04T07:04:28;29.33;;;13.23;;
31402;SDS011;18039;52.188;21.024;2023-03-04T07:06:56;25.65;;;12.32;;
31402;SDS011;18039;52.188;21.024;2023-03-04T07:09:23;25.80;;;12.50;;
31402;SDS011;18039;52.188;21.024;2023-03-04T07:11:51;23.50;;;11.38;;
31402;SDS011;18039;52.188;21.024;2023-03-04T07:14:18;28.05;;;12.80;;
31402;SDS011;18039;52.188;21.024;2023-03-04T07:16:47;29.00;;;14.38;;
31402;SDS011;18039;52.188;21.024;2023-03-04T07:19:14;27.77;;;13.73;;
31402;SDS011;18039;52.188;21.024;2023-03-04T07:21:41;30.60;;;14.55;;
31402;SDS011;18039;52.188;21.024;2023-03-04T07:24:08;27.70;;;13.35;;
31402;SDS011;18039;52.188;21.024;2023-03-04T07:26:36;27.73;;;13.35;;
31402;SDS011;18039;52.188;21.024;2023-03-04T07:29:04;26.40;;;11.73;;
31402;SDS011;18039;52.188;21.024;2023-03-04T07:31:33;28.98;;;14.27;;
31402;SDS011;18039;52.188;21.024;2023-03-04T07:34:02;29.00;;;14.15;;
31402;SDS011;18039;52.188;21.024;2023-03-04T07:36:32;31.17;;;15.30;;
31402;SDS011;18039;52.188;21.024;2023-03-04T07:39:01;26.05;;;13.75;;
31402;SDS011;18039;52.188;21.024;2023-03-04T07:41:28;26.48;;;12.00;;
31402;SDS011;18039;52.188;21.024;2023-03-04T07:43:56;30.35;;;13.63;;
31402;SDS011;18039;52.188;21.024;2023-03-04T07:46:24;27.65;;;13.38;;
31402;SDS011;18039;52.188;21.024;2023-03-04T07:48:51;28.75;;;14.38;;
31402;SDS011;18039;52.188;21.024;2023-03-04T07:51:21;26.80;;;13.00;;
31402;SDS011;18039;52.188;21.024;2023-03-04T07:53:51;29.27;;;13.07;;
31402;SDS011;18039;52.188;21.024;2023-03-04T07:58:49;30.50;;;13.40;;
31402;SDS011;18039;52.188;21.024;2023-03-04T08:01:22;26.73;;;12.48;;
31402;SDS011;18039;52.188;21.024;2023-03-04T08:03:51;25.73;;;12.75;;
31402;SDS011;18039;52.188;21.024;2023-03-04T08:06:19;26.17;;;12.50;;
31402;SDS011;18039;52.188;21.024;2023-03-04T08:08:47;26.10;;;11.45;;
31402;SDS011;18039;52.188;21.024;2023-03-04T08:11:17;27.92;;;13.38;;
31402;SDS011;18039;52.188;21.024;2023-03-04T08:13:47;25.90;;;14.23;;
31402;SDS011;18039;52.188;21.024;2023-03-04T08:16:15;30.58;;;11.05;;
31402;SDS011;18039;52.188;21.024;2023-03-04T08:18:45;28.90;;;12.82;;
31402;SDS011;18039;52.188;21.024;2023-03-04T08:21:16;19.90;;;9.80;;
31402;SDS011;18039;52.188;21.024;2023-03-04T08:23:45;20.52;;;10.35;;
31402;SDS011;18039;52.188;21.024;2023-03-04T08:26:15;29.50;;;13.75;;
31402;SDS011;18039;52.188;21.024;2023-03-04T08:28:48;29.58;;;12.85;;
31402;SDS011;18039;52.188;21.024;2023-03-04T08:31:17;20.60;;;10.48;;
31402;SDS011;18039;52.188;21.024;2023-03-04T08:33:45;28.63;;;14.32;;
31402;SDS011;18039;52.188;21.024;2023-03-04T08:36:13;30.27;;;13.80;;
31402;SDS011;18039;52.188;21.024;2023-03-04T08:38:41;27.65;;;13.07;;
31402;SDS011;18039;52.188;21.024;2023-03-04T08:41:08;17.90;;;9.73;;
31402;SDS011;18039;52.188;21.024;2023-03-04T08:43:36;26.88;;;11.70;;
31402;SDS011;18039;52.188;21.024;2023-03-04T08:46:03;26.35;;;12.50;;
31402;SDS011;18039;52.188;21.024;2023-03-04T08:48:32;25.55;;;13.15;;
31402;SDS011;18039;52.188;21.024;2023-03-04T08:51:00;29.05;;;12.90;;
31402;SDS011;18039;52.188;21.024;2023-03-04T08:53:32;26.52;;;11.82;;
31402;SDS011;18039;52.188;21.024;2023-03-04T08:56:00;21.58;;;10.80;;
31402;SDS011;18039;52.188;21.024;2023-03-04T08:58:28;28.95;;;12.73;;
31402;SDS011;18039;52.188;21.024;2023-03-04T09:00:58;26.70;;;12.75;;
31402;SDS011;18039;52.188;21.024;2023-03-04T09:03:27;28.38;;;13.30;;
31402;SDS011;18039;52.188;21.024;2023-03-04T09:05:55;19.25;;;9.32;;
31402;SDS011;18039;52.188;21.024;2023-03-04T09:08:22;20.85;;;10.35;;
31402;SDS011;18039;52.188;21.024;2023-03-04T09:10:51;22.83;;;11.85;;
31402;SDS011;18039;52.188;21.024;2023-03-04T09:13:23;25.77;;;12.02;;
31402;SDS011;18039;52.188;21.024;2023-03-04T09:15:52;22.98;;;13.10;;
31402;SDS011;18039;52.188;21.024;2023-03-04T09:18:20;26.58;;;12.63;;
31402;SDS011;18039;52.188;21.024;2023-03-04T09:20:49;24.92;;;12.02;;
31402;SDS011;18039;52.188;21.024;2023-03-04T09:23:17;23.10;;;12.00;;
31402;SDS011;18039;52.188;21.024;2023-03-04T09:25:47;26.33;;;12.23;;
31402;SDS011;18039;52.188;21.024;2023-03-04T09:28:16;25.65;;;11.35;;
31402;SDS011;18039;52.188;21.024;2023-03-04T09:30:44;23.08;;;10.50;;
31402;SDS011;18039;52.188;21.024;2023-03-04T09:33:12;23.38;;;9.77;;
31402;SDS011;18039;52.188;21.024;2023-03-04T09:35:39;20.42;;;11.10;;
31402;SDS011;18039;52.188;21.024;2023-03-04T09:38:07;21.40;;;10.82;;
31402;SDS011;18039;52.188;21.024;2023-03-04T09:40:41;20.23;;;10.13;;
31402;SDS011;18039;52.188;21.024;2023-03-04T09:43:14;27.90;;;11.18;;
31402;SDS011;18039;52.188;21.024;2023-03-04T09:45:48;23.35;;;11.05;;
31402;SDS011;18039;52.188;21.024;2023-03-04T09:48:26;22.60;;;10.30;;
31402;SDS011;18039;52.188;21.024;2023-03-04T09:56:17;27.63;;;11.23;;
31402;SDS011;18039;52.188;21.024;2023-03-04T09:58:51;20.80;;;9.90;;
31402;SDS011;18039;52.188;21.024;2023-03-04T10:01:26;22.15;;;10.30;;
31402;SDS011;18039;52.188;21.024;2023-03-04T10:04:13;27.00;;;11.85;;
31402;SDS011;18039;52.188;21.024;2023-03-04T10:06:49;26.52;;;12.15;;
31402;SDS011;18039;52.188;21.024;2023-03-04T10:09:31;24.00;;;11.23;;
31402;SDS011;18039;52.188;21.024;2023-03-04T10:12:06;21.27;;;10.60;;
31402;SDS011;18039;52.188;21.024;2023-03-04T10:14:42;26.80;;;11.00;;
31402;SDS011;18039;52.188;21.024;2023-03-04T10:22:44;25.77;;;11.23;;
31402;SDS011;18039;52.188;21.024;2023-03-04T10:25:26;33.53;;;11.07;;
31402;SDS011;18039;52.188;21.024;2023-03-04T10:28:03;23.45;;;10.70;;
31402;SDS011;18039;52.188;21.024;2023-03-04T10:33:24;28.65;;;11.75;;
31402;SDS011;18039;52.188;21.024;2023-03-04T10:36:00;18.33;;;8.73;;
31402;SDS011;18039;52.188;21.024;2023-03-04T10:38:33;26.02;;;11.10;;
31402;SDS011;18039;52.188;21.024;2023-03-04T10:41:12;19.73;;;10.75;;
31402;SDS011;18039;52.188;21.024;2023-03-04T10:46:41;21.20;;;10.40;;
31402;SDS011;18039;52.188;21.024;2023-03-04T10:49:11;23.25;;;10.52;;
31402;SDS011;18039;52.188;21.024;2023-03-04T10:52:02;28.00;;;11.73;;
31402;SDS011;18039;52.188;21.024;2023-03-04T10:54:52;29.77;;;9.73;;
31402;SDS011;18039;52.188;21.024;2023-03-04T11:02:52;18.35;;;10.10;;
31402;SDS011;18039;52.188;21.024;2023-03-04T11:05:47;21.60;;;10.02;;
31402;SDS011;18039;52.188;21.024;2023-03-04T11:08:16;28.00;;;10.23;;
31402;SDS011;18039;52.188;21.024;2023-03-04T11:10:49;22.50;;;10.27;;
31402;SDS011;18039;52.188;21.024;2023-03-04T11:13:26;19.92;;;10.48;;
31402;SDS011;18039;52.188;21.024;2023-03-04T11:21:03;35.72;;;10.45;;
31402;SDS011;18039;52.188;21.024;2023-03-04T11:26:09;25.42;;;11.38;;
31402;SDS011;18039;52.188;21.024;2023-03-04T11:31:27;21.75;;;10.35;;
31402;SDS011;18039;52.188;21.024;2023-03-04T11:39:19;17.92;;;8.45;;
31402;SDS011;18039;52.188;21.024;2023-03-04T11:41:54;20.48;;;8.85;;
31402;SDS011;18039;52.188;21.024;2023-03-04T11:44:27;23.83;;;10.05;;
31402;SDS011;18039;52.188;21.024;2023-03-04T11:55:28;25.08;;;11.30;;
31402;SDS011;18039;52.188;21.024;2023-03-04T12:00:35;24.52;;;10.40;;
31402;SDS011;18039;52.188;21.024;2023-03-04T12:06:00;23.40;;;10.40;;
31402;SDS011;18039;52.188;21.024;2023-03-04T12:08:34;23.50;;;12.10;;
31402;SDS011;18039;52.188;21.024;2023-03-04T12:16:35;29.55;;;9.68;;
31402;SDS011;18039;52.188;21.024;2023-03-04T12:22:08;23.63;;;11.73;;
31402;SDS011;18039;52.188;21.024;2023-03-04T12:32:53;21.60;;;10.43;;
31402;SDS011;18039;52.188;21.024;2023-03-04T12:35:25;25.85;;;11.98;;
31402;SDS011;18039;52.188;21.024;2023-03-04T12:38:06;29.08;;;11.85;;
31402;SDS011;18039;52.188;21.024;2023-03-04T12:40:56;24.13;;;12.32;;
31402;SDS011;18039;52.188;21.024;2023-03-04T12:43:30;25.40;;;12.00;;
31402;SDS011;18039;52.188;21.024;2023-03-04T12:46:19;22.00;;;11.13;;
31402;SDS011;18039;52.188;21.024;2023-03-04T12:48:57;25.08;;;11.20;;
31402;SDS011;18039;52.188;21.024;2023-03-04T12:55:00;25.13;;;10.18;;
31402;SDS011;18039;52.188;21.024;2023-03-04T12:57:30;22.67;;;10.18;;
31402;SDS011;18039;52.188;21.024;2023-03-04T13:05:18;21.77;;;9.40;;
31402;SDS011;18039;52.188;21.024;2023-03-04T13:08:10;17.15;;;9.70;;
31402;SDS011;18039;52.188;21.024;2023-03-04T13:10:38;19.23;;;9.60;;
31402;SDS011;18039;52.188;21.024;2023-03-04T13:13:32;20.67;;;10.32;;
31402;SDS011;18039;52.188;21.024;2023-03-04T13:16:14;20.58;;;9.30;;
31402;SDS011;18039;52.188;21.024;2023-03-04T13:18:59;24.27;;;10.48;;
31402;SDS011;18039;52.188;21.024;2023-03-04T13:21:29;19.05;;;8.77;;
31402;SDS011;18039;52.188;21.024;2023-03-04T13:24:00;21.40;;;9.50;;
31402;SDS011;18039;52.188;21.024;2023-03-04T13:33:04;16.50;;;8.52;;
31402;SDS011;18039;52.188;21.024;2023-03-04T13:36:07;16.77;;;8.38;;
31402;SDS011;18039;52.188;21.024;2023-03-04T13:41:49;22.60;;;9.98;;
31402;SDS011;18039;52.188;21.024;2023-03-04T13:47:08;21.33;;;9.77;;
31402;SDS011;18039;52.188;21.024;2023-03-04T13:49:44;18.52;;;9.20;;
31402;SDS011;18039;52.188;21.024;2023-03-04T13:58:13;8.57;;;3.90;;
31402;SDS011;18039;52.188;21.024;2023-03-04T14:00:53;6.68;;;3.35;;
31402;SDS011;18039;52.188;21.024;2023-03-04T14:03:23;5.97;;;3.70;;
31402;SDS011;18039;52.188;21.024;2023-03-04T14:11:47;7.53;;;3.95;;
31402;SDS011;18039;52.188;21.024;2023-03-04T14:14:19;9.75;;;3.53;;
31402;SDS011;18039;52.188;21.024;2023-03-04T14:16:54;7.00;;;3.42;;
31402;SDS011;18039;52.188;21.024;2023-03-04T14:24:25;5.03;;;2.88;;
31402;SDS011;18039;52.188;21.024;2023-03-04T14:27:10;6.25;;;2.85;;
31402;SDS011;18039;52.188;21.024;2023-03-04T14:29:39;7.60;;;3.10;;
31402;SDS011;18039;52.188;21.024;2023-03-04T14:32:06;7.00;;;2.22;;
31402;SDS011;18039;52.188;21.024;2023-03-04T14:34:35;4.40;;;2.33;;
31402;SDS011;18039;52.188;21.024;2023-03-04T14:37:14;5.53;;;2.35;;
31402;SDS011;18039;52.188;21.024;2023-03-04T14:39:49;8.77;;;2.63;;
31402;SDS011;18039;52.188;21.024;2023-03-04T14:42:22;8.85;;;2.28;;
31402;SDS011;18039;52.188;21.024;2023-03-04T14:44:54;7.63;;;2.40;;
31402;SDS011;18039;52.188;21.024;2023-03-04T14:47:32;7.70;;;2.57;;
31402;SDS011;18039;52.188;21.024;2023-03-04T14:50:06;7.10;;;2.30;;
31402;SDS011;18039;52.188;21.024;2023-03-04T14:52:40;5.10;;;2.30;;
31402;SDS011;18039;52.188;21.024;2023-03-04T14:58:06;6.55;;;2.28;;
31402;SDS011;18039;52.188;21.024;2023-03-04T15:00:36;4.97;;;2.40;;
31402;SDS011;18039;52.188;21.024;2023-03-04T15:06:19;6.88;;;2.28;;
31402;SDS011;18039;52.188;21.024;2023-03-04T15:08:56;5.25;;;1.88;;
31402;SDS011;18039;52.188;21.024;2023-03-04T15:11:28;4.68;;;2.15;;
31402;SDS011;18039;52.188;21.024;2023-03-04T15:22:35;4.60;;;1.85;;
31402;SDS011;18039;52.188;21.024;2023-03-04T15:25:23;4.28;;;1.60;;
31402;SDS011;18039;52.188;21.024;2023-03-04T15:27:51;3.15;;;1.30;;
31402;SDS011;18039;52.188;21.024;2023-03-04T15:30:27;3.22;;;1.40;;
31402;SDS011;18039;52.188;21.024;2023-03-04T15:32:57;4.55;;;2.00;;
31402;SDS011;18039;52.188;21.024;2023-03-04T15:35:27;3.58;;;1.17;;
31402;SDS011;18039;52.188;21.024;2023-03-04T15:37:56;2.67;;;1.45;;
31402;SDS011;18039;52.188;21.024;2023-03-04T15:43:01;2.08;;;1.13;;
31402;SDS011;18039;52.188;21.024;2023-03-04T15:45:30;3.50;;;1.27;;
31402;SDS011;18039;52.188;21.024;2023-03-04T15:48:03;3.22;;;1.45;;
31402;SDS011;18039;52.188;21.024;2023-03-04T15:50:39;5.35;;;1.58;;
31402;SDS011;18039;52.188;21.024;2023-03-04T15:53:12;3.08;;;0.98;;
31402;SDS011;18039;52.188;21.024;2023-03-04T15:55:44;7.18;;;1.33;;
31402;SDS011;18039;52.188;21.024;2023-03-04T15:58:12;6.28;;;1.67;;
31402;SDS011;18039;52.188;21.024;2023-03-04T16:00:40;3.28;;;1.52;;
31402;SDS011;18039;52.188;21.024;2023-03-04T16:03:14;4.55;;;1.55;;
31402;SDS011;18039;52.188;21.024;2023-03-04T16:05:43;9.18;;;1.75;;
31402;SDS011;18039;52.188;21.024;2023-03-04T16:08:14;2.85;;;1.38;;
31402;SDS011;18039;52.188;21.024;2023-03-04T16:10:43;4.38;;;1.42;;
31402;SDS011;18039;52.188;21.024;2023-03-04T16:13:11;6.30;;;1.85;;
31402;SDS011;18039;52.188;21.024;2023-03-04T16:15:44;3.75;;;1.35;;
31402;SDS011;18039;52.188;21.024;2023-03-04T16:18:12;4.10;;;1.50;;
31402;SDS011;18039;52.188;21.024;2023-03-04T16:20:45;4.03;;;1.40;;
31402;SDS011;18039;52.188;21.024;2023-03-04T16:23:17;5.80;;;1.35;;
31402;SDS011;18039;52.188;21.024;2023-03-04T16:25:48;4.43;;;1.55;;
31402;SDS011;18039;52.188;21.024;2023-03-04T16:28:18;2.97;;;1.40;;
31402;SDS011;18039;52.188;21.024;2023-03-04T16:30:45;5.65;;;1.77;;
31402;SDS011;18039;52.188;21.024;2023-03-04T16:33:13;4.00;;;1.33;;
31402;SDS011;18039;52.188;21.024;2023-03-04T16:35:41;3.38;;;1.60;;
31402;SDS011;18039;52.188;21.024;2023-03-04T16:38:23;4.45;;;1.67;;
31402;SDS011;18039;52.188;21.024;2023-03-04T16:40:54;4.78;;;1.92;;
31402;SDS011;18039;52.188;21.024;2023-03-04T16:43:23;2.80;;;1.50;;